Sigonella Airport LICZ

Flugplatz Daten

Name: Sigonella Airport

Ident: LICZ

Lat: 37,40169907

Long: 14,92240047

Platzhöhe: 79 ft

IataCode: NSY

City:

Metar

2021/08/05 14:55
LICZ 051455Z /////KT 8000 FEW100 33/22 Q1009 RMK FEW VIS MIN 8000 WIND THR28 10012KT WIND THR10 10012KT A2981 BLU

Taf

2021/08/05 12:27
TAF TAF LICZ 051100Z 0512/0612 07014KT 9999 FEW030 SCT100
BECMG 0520/0522 28007KT CAVOK
TEMPO 0601/0603 6000
BECMG 0610/0612 09016KT 9999 SCT030
Gewünschte Webcam nicht vorhanden? Dann fügen Sie eine hinzu. Sie wird dann so schnell wie möglich freigeschaltet
Url: Title: